Terminal Aerodrome Forecast
Issued by NWS Louisville, KY

Home | Current Version | Previous Version | Text Only | Print | Product List | Glossary On
Versions: 1 2 3 4 5 6 7 8 9 10 11 12 13 14 15
000
FTUS43 KLMK 290520
TAFLEX
TAF
KLEX 290520Z 2906/3006 12004KT P6SM SCT250
     FM291000 VRB04KT 6SM BR SCT250
     FM291400 19008KT P6SM SCT040 SCT250
     FM300000 VRB04KT P6SM SCT040 BKN250=

USA.gov is the U.S. government's official web portal to all federal, state and local government web resources and services.